Startpagina
METAR-TAF:

METAR-TAF

Vliegvelden :

Perth, Australië

Perth Airport

breedte: 31-56S, lengte: 115-57E, hoogte: 20 m

Actueel weer

Dit bericht is 33 minuten geleden gemaakt, om 09:30 UTC
Wind 20 kt uit het zuidwesten
Temperatuur 26°C
Vochtigheid 54%
Druk 1007 hPa
Zicht 10 km of meer
geen wolken onder 1500 m en geen cumulonimbus

METAR: YPPH 190930Z 22020KT CAVOK 26/16 Q1007 NOSIG

Tijdstip: 18:03 (10:03 UTC)

Verwachting

Dit bericht is 4 uur en het 55 minuten geleden gemaakt, om 05:08 UTC
Verwachting geldig van 19 om 06 UTC tot 20 om 12 UTC
Wind 18 kt uit het zuidwesten
Zicht 10 km of meer
geen wolken onder 1500 m en geen cumulonimbus
Van 19 om 1200 UTC
Wind 14 kt uit het zuidzuidoosten
Zicht 10 km of meer
Verspreide wolken op 2500 ft
Van 20 om 0000 UTC
Wind 12 kt uit het zuidoosten
Zicht 10 km of meer
geen wolken onder 1500 m en geen cumulonimbus

TAF: YPPH 190508Z 1906/2012 22018KT CAVOK FM191200 16014KT 9999 SCT025 FM200000 13012KT CAVOK

Waarnemingen en weersverwachtingen van meer dan 4000 vliegvelden (METAR en TAF).

De beschikbare stations zijn de gele en rode punten op de kaart.

Ga met uw muis naar het station om de naam te zien.

Klik dan om waarnemingen en weersverwachtingen te zien.

kaart wijzigen: klik op de groene knoppen met een zwart kruis om in te zoomen, op de groene knop met een streepje om uit te zoomen of op de groene pijlen voor aangrenzende kaarten.


METAR-TAF: